Time;durP1;ratioP1;P1;durP2;ratioP2;P2;SDS_P1;SDS_P2;PMS_P1;PMS_P2;Temp;Humidity;BMP_temperature;BMP_pressure;BME280_temperature;BME280_humidity;BME280_pressure;Samples;Min_cycle;Max_cycle;Signal;HPM_P1;HPM_P2
2023/01/09 00:00:55;;;;;;;30.15;11.18;;;;;;;;;;2112501;28;20126;-42
2023/01/09 00:01:56;;;;;;;23.83;10.02;;;;;;;;;;2112386;28;20050;-43
2023/01/09 00:02:57;;;;;;;25.75;10.45;;;;;;;;;;2112646;28;20048;-41
2023/01/09 00:03:58;;;;;;;25.80;10.93;;;;;;;;;;2112552;28;20407;-43
2023/01/09 00:04:59;;;;;;;24.17;10.23;;;;;;;;;;2112405;28;20059;-42
2023/01/09 00:06:00;;;;;;;23.35;9.52;;;;;;;;;;2112621;28;20043;-43
2023/01/09 00:07:01;;;;;;;26.08;10.13;;;;;;;;;;2112703;28;20048;-43
2023/01/09 00:08:02;;;;;;;21.35;9.68;;;;;;;;;;2112394;28;20048;-43
2023/01/09 00:09:03;;;;;;;23.13;9.25;;;;;;;;;;2112495;28;20101;-43
2023/01/09 00:10:06;;;;;;;24.40;9.32;;;;;;;;;;2112350;28;20396;-43
2023/01/09 00:11:07;;;;;;;25.92;10.30;;;;;;;;;;2112578;28;20047;-43
2023/01/09 00:12:08;;;;;;;23.35;9.77;;;;;;;;;;2112261;28;20044;-44
2023/01/09 00:13:10;;;;;;;19.85;9.45;;;;;;;;;;2112541;28;20054;-43
2023/01/09 00:14:11;;;;;;;;;;;;;;;;;;2112860;28;20078;-43
2023/01/09 00:15:12;;;;;;;23.40;9.45;;;;;;;;;;2112529;28;19973;-43
2023/01/09 00:16:13;;;;;;;27.92;9.40;;;;;;;;;;2112544;28;20055;-43
2023/01/09 00:17:14;;;;;;;25.17;10.00;;;;;;;;;;2112266;28;20079;-43
2023/01/09 00:18:15;;;;;;;25.67;9.95;;;;;;;;;;2112386;28;20093;-43
2023/01/09 00:19:16;;;;;;;30.33;10.80;;;;;;;;;;2112382;28;20047;-43
2023/01/09 00:20:17;;;;;;;24.63;10.57;;;;;;;;;;2112356;28;20048;-43
2023/01/09 00:21:19;;;;;;;20.90;9.38;;;;;;;;;;2112409;28;20055;-43
2023/01/09 00:22:20;;;;;;;27.05;10.25;;;;;;;;;;2111956;28;20047;-43
2023/01/09 00:23:21;;;;;;;25.40;9.43;;;;;;;;;;2110041;28;20059;-43
2023/01/09 00:24:22;;;;;;;21.03;10.47;;;;;;;;;;2106790;28;20477;-43
2023/01/09 00:25:23;;;;;;;25.67;10.68;;;;;;;;;;2106815;28;20097;-43
2023/01/09 00:26:24;;;;;;;22.15;9.57;;;;;;;;;;2106757;28;20063;-43
2023/01/09 00:27:25;;;;;;;24.50;9.77;;;;;;;;;;2106702;28;20093;-44
2023/01/09 00:28:27;;;;;;;21.05;9.82;;;;;;;;;;2106785;28;20430;-43
2023/01/09 00:29:28;;;;;;;24.17;9.68;;;;;;;;;;2106715;28;20051;-43
2023/01/09 00:30:29;;;;;;;22.73;8.98;;;;;;;;;;2106682;28;20044;-43
2023/01/09 00:31:30;;;;;;;25.80;10.25;;;;;;;;;;2106687;28;20477;-43
2023/01/09 00:32:31;;;;;;;23.95;9.88;;;;;;;;;;2106526;28;20075;-43
2023/01/09 00:33:33;;;;;;;25.03;9.53;;;;;;;;;;2106871;28;20094;-43
2023/01/09 00:34:36;;;;;;;26.55;11.48;;;;;;;;;;2106606;28;20051;-43
2023/01/09 00:35:37;;;;;;;22.83;8.95;;;;;;;;;;2106712;28;20040;-43
2023/01/09 00:36:38;;;;;;;23.95;9.35;;;;;;;;;;2106591;28;20059;-43
2023/01/09 00:37:39;;;;;;;23.67;9.18;;;;;;;;;;2106699;28;20040;-43
2023/01/09 00:38:40;;;;;;;26.70;9.77;;;;;;;;;;2106750;28;20052;-43
2023/01/09 00:39:42;;;;;;;21.42;9.02;;;;;;;;;;2106766;28;20127;-43
2023/01/09 00:40:43;;;;;;;25.98;9.77;;;;;;;;;;2106641;28;20121;-43
2023/01/09 00:41:46;;;;;;;21.23;9.88;;;;;;;;;;2106447;28;20397;-43
2023/01/09 00:42:50;;;;;;;19.10;8.77;;;;;;;;;;2106672;28;20074;-43
2023/01/09 00:43:54;;;;;;;22.35;9.65;;;;;;;;;;2106595;28;20055;-43
2023/01/09 00:44:57;;;;;;;25.27;9.20;;;;;;;;;;2106636;28;20055;-43
2023/01/09 00:46:00;;;;;;;25.70;9.23;;;;;;;;;;2106583;28;20055;-43
2023/01/09 00:47:01;;;;;;;24.25;9.40;;;;;;;;;;2106670;28;20139;-43
2023/01/09 00:48:07;;;;;;;25.27;10.27;;;;;;;;;;2106635;28;20480;-43
2023/01/09 00:49:08;;;;;;;22.45;9.07;;;;;;;;;;2106734;28;20094;-43
2023/01/09 00:50:11;;;;;;;24.60;9.38;;;;;;;;;;2106437;28;20054;-43
2023/01/09 00:51:12;;;;;;;24.17;9.15;;;;;;;;;;2106675;28;20108;-43
2023/01/09 00:52:14;;;;;;;23.05;9.05;;;;;;;;;;2106494;28;20105;-43
2023/01/09 00:53:16;;;;;;;25.20;9.98;;;;;;;;;;2106648;28;20052;-43
2023/01/09 00:54:18;;;;;;;18.63;9.05;;;;;;;;;;2106653;28;20054;-43
2023/01/09 00:55:18;;;;;;;;;;;;;;;;;;2106954;28;20398;-43
2023/01/09 00:56:22;;;;;;;17.23;7.82;;;;;;;;;;2106560;28;20204;-43
2023/01/09 00:57:22;;;;;;;21.33;8.57;;;;;;;;;;2106568;28;20048;-43
2023/01/09 00:58:24;;;;;;;21.50;8.97;;;;;;;;;;2106481;28;20055;-43
2023/01/09 00:59:25;;;;;;;26.55;8.75;;;;;;;;;;2106593;28;20149;-43
2023/01/09 01:00:26;;;;;;;24.15;9.65;;;;;;;;;;2106474;28;20044;-43
2023/01/09 01:01:27;;;;;;;23.92;8.85;;;;;;;;;;2106491;28;20051;-43
2023/01/09 01:02:28;;;;;;;25.58;9.68;;;;;;;;;;2106300;28;20102;-43
2023/01/09 01:03:30;;;;;;;23.03;9.77;;;;;;;;;;2106484;28;20086;-43
2023/01/09 01:08:31;;;;;;;21.73;9.40;;;;;;;;;;2102830;28;20047;-43
2023/01/09 01:09:32;;;;;;;21.40;8.75;;;;;;;;;;2106479;28;20423;-43
2023/01/09 01:10:35;;;;;;;23.13;8.10;;;;;;;;;;2106410;28;20040;-43
2023/01/09 01:11:36;;;;;;;24.50;9.50;;;;;;;;;;2106413;28;20419;-42
2023/01/09 01:12:38;;;;;;;21.02;9.10;;;;;;;;;;2106362;28;20043;-43
2023/01/09 01:13:40;;;;;;;24.38;9.48;;;;;;;;;;2106462;28;20476;-43
2023/01/09 01:14:41;;;;;;;22.83;8.77;;;;;;;;;;2106334;28;20404;-43
2023/01/09 01:15:43;;;;;;;23.50;9.30;;;;;;;;;;2106671;28;20134;-43
2023/01/09 01:16:44;;;;;;;22.15;9.18;;;;;;;;;;2106411;28;20048;-43
2023/01/09 01:17:45;;;;;;;19.50;8.33;;;;;;;;;;2106303;28;20040;-43
2023/01/09 01:18:46;;;;;;;25.35;9.05;;;;;;;;;;2106150;28;20048;-43
2023/01/09 01:19:47;;;;;;;21.23;9.13;;;;;;;;;;2106338;28;20059;-43
2023/01/09 01:20:48;;;;;;;23.15;9.30;;;;;;;;;;2106420;28;20048;-43
2023/01/09 01:21:49;;;;;;;22.17;9.70;;;;;;;;;;2106182;28;20478;-43
2023/01/09 01:22:50;;;;;;;23.40;9.10;;;;;;;;;;2106284;28;20050;-43
2023/01/09 01:23:51;;;;;;;18.97;8.53;;;;;;;;;;2106265;28;20051;-43
2023/01/09 01:24:52;;;;;;;22.20;8.55;;;;;;;;;;2106522;28;20040;-43
2023/01/09 01:25:53;;;;;;;19.13;8.77;;;;;;;;;;2106527;28;20450;-43
2023/01/09 01:26:55;;;;;;;16.70;7.90;;;;;;;;;;2106196;28;20048;-43
2023/01/09 01:27:56;;;;;;;21.98;8.00;;;;;;;;;;2106316;28;20044;-43
2023/01/09 01:28:57;;;;;;;25.13;9.88;;;;;;;;;;2106289;28;20396;-43
2023/01/09 01:29:58;;;;;;;19.57;8.63;;;;;;;;;;2106273;28;20063;-43
2023/01/09 01:30:59;;;;;;;20.17;8.80;;;;;;;;;;2106297;28;20296;-43
2023/01/09 01:32:01;;;;;;;18.92;8.57;;;;;;;;;;2106356;28;20130;-43
2023/01/09 01:33:01;;;;;;;22.05;8.27;;;;;;;;;;2106327;28;20044;-43
2023/01/09 01:34:03;;;;;;;20.30;8.73;;;;;;;;;;2106400;28;20048;-43
2023/01/09 01:35:04;;;;;;;19.75;8.93;;;;;;;;;;2105744;28;20056;-43
2023/01/09 01:36:06;;;;;;;20.27;8.32;;;;;;;;;;2105770;28;20051;-43
2023/01/09 01:37:07;;;;;;;23.30;8.88;;;;;;;;;;2106250;28;20044;-43
2023/01/09 01:38:08;;;;;;;23.37;8.30;;;;;;;;;;2106226;28;20135;-43
2023/01/09 01:39:09;;;;;;;17.52;8.32;;;;;;;;;;2106457;28;20048;-43
2023/01/09 01:40:11;;;;;;;21.05;8.85;;;;;;;;;;2106191;28;20518;-43
2023/01/09 01:41:12;;;;;;;19.38;7.93;;;;;;;;;;2106262;28;20058;-43
2023/01/09 01:42:14;;;;;;;19.73;8.00;;;;;;;;;;2106106;28;20177;-43
2023/01/09 01:43:14;;;;;;;17.27;8.68;;;;;;;;;;2106342;28;20052;-43
2023/01/09 01:44:34;;;;;;;21.88;7.68;;;;;;;;;;2106328;28;20056;-43
2023/01/09 01:45:35;;;;;;;18.20;7.93;;;;;;;;;;2106295;28;20044;-43
2023/01/09 01:46:36;;;;;;;22.25;8.15;;;;;;;;;;2106182;28;20048;-43
2023/01/09 01:47:41;;;;;;;20.07;7.03;;;;;;;;;;2106155;28;20446;-43
2023/01/09 01:48:42;;;;;;;17.77;7.93;;;;;;;;;;2106134;28;20054;-43
2023/01/09 01:49:44;;;;;;;19.17;7.43;;;;;;;;;;2106152;28;20074;-43
2023/01/09 01:50:46;;;;;;;17.70;7.82;;;;;;;;;;2106280;28;20101;-43
2023/01/09 01:51:51;;;;;;;17.73;7.78;;;;;;;;;;2106092;28;20048;-43
2023/01/09 01:52:55;;;;;;;20.95;8.35;;;;;;;;;;2106272;28;20048;-43
2023/01/09 01:53:59;;;;;;;16.63;8.98;;;;;;;;;;2106382;28;20055;-43
2023/01/09 01:55:00;;;;;;;17.60;7.20;;;;;;;;;;2106101;28;20520;-43
2023/01/09 01:56:03;;;;;;;19.08;7.97;;;;;;;;;;2106129;28;20044;-43
2023/01/09 01:57:05;;;;;;;21.30;8.90;;;;;;;;;;2106185;28;20127;-44
2023/01/09 01:58:08;;;;;;;18.50;7.88;;;;;;;;;;2106157;28;20044;-43
2023/01/09 01:59:13;;;;;;;18.52;7.68;;;;;;;;;;2106286;28;20048;-43
2023/01/09 02:00:14;;;;;;;21.13;7.93;;;;;;;;;;2106028;28;20056;-43
2023/01/09 02:01:16;;;;;;;21.70;8.35;;;;;;;;;;2106194;28;20051;-43
2023/01/09 02:02:17;;;;;;;16.10;7.50;;;;;;;;;;2105940;28;20052;-43
2023/01/09 02:03:20;;;;;;;24.05;8.50;;;;;;;;;;2106014;28;20503;-43
2023/01/09 02:04:21;;;;;;;22.65;8.48;;;;;;;;;;2106152;28;20074;-43
2023/01/09 02:05:22;;;;;;;21.03;7.63;;;;;;;;;;2106139;28;20044;-43
2023/01/09 02:06:23;;;;;;;18.98;6.95;;;;;;;;;;2106000;28;20531;-43
2023/01/09 02:07:25;;;;;;;22.90;8.18;;;;;;;;;;2106000;28;20044;-44
2023/01/09 02:08:25;;;;;;;17.92;7.55;;;;;;;;;;2106341;28;20048;-43
2023/01/09 02:09:27;;;;;;;24.83;7.03;;;;;;;;;;2106115;28;20044;-43
2023/01/09 02:10:29;;;;;;;18.95;8.00;;;;;;;;;;2106248;28;20044;-43
2023/01/09 02:11:30;;;;;;;16.15;7.70;;;;;;;;;;2106075;28;20048;-43
2023/01/09 02:12:31;;;;;;;17.92;6.72;;;;;;;;;;2106092;28;20040;-43
2023/01/09 02:13:33;;;;;;;16.30;7.07;;;;;;;;;;2106102;28;20062;-43
2023/01/09 02:14:34;;;;;;;19.13;7.63;;;;;;;;;;2106137;28;20117;-43
2023/01/09 02:15:41;;;;;;;18.17;6.90;;;;;;;;;;2105996;28;20495;-43
2023/01/09 02:16:46;;;;;;;21.73;7.68;;;;;;;;;;2106194;28;20217;-43
2023/01/09 02:18:05;;;;;;;14.75;6.57;;;;;;;;;;2106092;28;20051;-43
2023/01/09 02:19:14;;;;;;;15.10;6.63;;;;;;;;;;2106066;28;20043;-43
2023/01/09 02:20:36;;;;;;;17.25;7.78;;;;;;;;;;2106077;28;20043;-43
2023/01/09 02:21:41;;;;;;;25.38;7.32;;;;;;;;;;2106101;28;20048;-43
2023/01/09 02:22:50;;;;;;;19.70;7.07;;;;;;;;;;2110876;28;20136;-43
2023/01/09 02:24:06;;;;;;;14.27;7.18;;;;;;;;;;2114510;28;20472;-43
2023/01/09 02:25:20;;;;;;;17.38;6.57;;;;;;;;;;2114319;28;20481;-43
2023/01/09 02:26:51;;;;;;;14.27;6.93;;;;;;;;;;2114554;28;20048;-43
2023/01/09 02:28:16;;;;;;;19.30;6.90;;;;;;;;;;2114419;28;20044;-43
2023/01/09 02:29:28;;;;;;;17.02;6.50;;;;;;;;;;2080076;28;20065;-43
2023/01/09 02:30:34;;;;;;;14.93;6.30;;;;;;;;;;2080128;28;20042;-43
2023/01/09 02:31:40;;;;;;;12.88;5.80;;;;;;;;;;2114227;28;20048;-43
2023/01/09 02:32:44;;;;;;;18.15;6.53;;;;;;;;;;2114262;28;20051;-43
2023/01/09 02:33:50;;;;;;;21.52;7.75;;;;;;;;;;2114369;28;20051;-43
2023/01/09 02:34:55;;;;;;;18.48;7.90;;;;;;;;;;2114466;28;20050;-43
2023/01/09 02:36:08;;;;;;;13.85;6.47;;;;;;;;;;2114445;28;20059;-42
2023/01/09 02:37:11;;;;;;;19.10;7.40;;;;;;;;;;2114312;28;20093;-43
2023/01/09 02:38:16;;;;;;;17.58;7.18;;;;;;;;;;2114237;28;20492;-43
2023/01/09 02:39:21;;;;;;;15.50;7.38;;;;;;;;;;2114440;28;20073;-43
2023/01/09 02:40:25;;;;;;;19.48;6.90;;;;;;;;;;2114521;28;20048;-43
2023/01/09 02:41:30;;;;;;;15.65;7.35;;;;;;;;;;2114410;28;20036;-43
2023/01/09 02:42:32;;;;;;;16.85;7.75;;;;;;;;;;2114219;28;20054;-43
2023/01/09 02:43:33;;;;;;;16.00;6.95;;;;;;;;;;2114244;28;20046;-43
2023/01/09 02:44:35;;;;;;;15.60;6.63;;;;;;;;;;2114379;28;20043;-43
2023/01/09 02:45:36;;;;;;;;;;;;;;;;;;2114731;28;20035;-43
2023/01/09 02:46:38;;;;;;;15.88;6.53;;;;;;;;;;2113957;28;19919;-43
2023/01/09 02:47:40;;;;;;;15.23;6.65;;;;;;;;;;2114203;28;20043;-43
2023/01/09 02:48:42;;;;;;;15.48;6.45;;;;;;;;;;2114197;28;20097;-41
2023/01/09 02:49:42;;;;;;;;;;;;;;;;;;2114525;28;20484;-41
2023/01/09 02:50:46;;;;;;;17.48;6.95;;;;;;;;;;2114229;28;19923;-43
2023/01/09 02:51:50;;;;;;;17.35;6.75;;;;;;;;;;2114198;28;20484;-42
2023/01/09 02:53:09;;;;;;;17.67;6.50;;;;;;;;;;2114148;28;20044;-43
2023/01/09 02:54:17;;;;;;;16.77;6.20;;;;;;;;;;2079856;28;20056;-41
2023/01/09 02:55:26;;;;;;;18.80;6.55;;;;;;;;;;2111951;28;20044;-43
2023/01/09 02:56:42;;;;;;;14.05;6.45;;;;;;;;;;2114272;28;20048;-42
2023/01/09 02:57:51;;;;;;;17.63;6.95;;;;;;;;;;2096837;28;20395;-41
2023/01/09 02:59:02;;;;;;;13.60;6.15;;;;;;;;;;2114165;28;20441;-42
2023/01/09 03:00:08;;;;;;;14.40;6.40;;;;;;;;;;2114231;28;20112;-43
2023/01/09 03:01:13;;;;;;;19.40;6.25;;;;;;;;;;2114209;28;20048;-43
2023/01/09 03:02:22;;;;;;;14.30;6.45;;;;;;;;;;2114116;28;20048;-43
2023/01/09 03:03:26;;;;;;;16.38;7.03;;;;;;;;;;2114242;28;20047;-43
2023/01/09 03:04:31;;;;;;;16.00;6.28;;;;;;;;;;2114114;28;20054;-43
2023/01/09 03:05:36;;;;;;;14.65;6.07;;;;;;;;;;2114314;28;20051;-43
2023/01/09 03:06:42;;;;;;;20.17;6.82;;;;;;;;;;2114330;28;20051;-43
2023/01/09 03:07:47;;;;;;;14.95;6.72;;;;;;;;;;2114061;28;20048;-43
2023/01/09 03:08:51;;;;;;;18.38;8.30;;;;;;;;;;2114318;28;20104;-43
2023/01/09 03:09:56;;;;;;;18.08;6.88;;;;;;;;;;2114171;28;20063;-43
2023/01/09 03:10:59;;;;;;;16.27;7.10;;;;;;;;;;2114048;28;20052;-43
2023/01/09 03:12:01;;;;;;;16.45;6.13;;;;;;;;;;2114090;28;20092;-43
2023/01/09 03:13:02;;;;;;;15.75;7.20;;;;;;;;;;2114116;28;20052;-43
2023/01/09 03:14:06;;;;;;;18.55;6.72;;;;;;;;;;2114050;28;20054;-43
2023/01/09 03:15:10;;;;;;;15.93;6.85;;;;;;;;;;2114128;28;20376;-43
2023/01/09 03:16:14;;;;;;;15.52;5.80;;;;;;;;;;2114190;28;20043;-43
2023/01/09 03:17:18;;;;;;;15.82;6.75;;;;;;;;;;2114118;28;20214;-43
2023/01/09 03:18:21;;;;;;;14.25;6.97;;;;;;;;;;2114212;28;20051;-43
2023/01/09 03:19:26;;;;;;;20.20;6.60;;;;;;;;;;2114043;28;20504;-43
2023/01/09 03:20:27;;;;;;;15.02;6.82;;;;;;;;;;2114018;28;20100;-43
2023/01/09 03:21:30;;;;;;;15.10;7.47;;;;;;;;;;2114090;28;20062;-43
2023/01/09 03:22:31;;;;;;;16.10;6.68;;;;;;;;;;2110084;28;20044;-44
2023/01/09 03:23:44;;;;;;;14.80;6.93;;;;;;;;;;2105637;28;20085;-43
2023/01/09 03:24:45;;;;;;;17.00;6.88;;;;;;;;;;2105788;28;20044;-43
2023/01/09 03:25:46;;;;;;;12.90;6.20;;;;;;;;;;2105466;28;20094;-43
2023/01/09 03:26:47;;;;;;;14.73;6.70;;;;;;;;;;2105674;28;20113;-43
2023/01/09 03:27:49;;;;;;;13.57;7.20;;;;;;;;;;2105586;28;20474;-43
2023/01/09 03:28:51;;;;;;;14.93;6.38;;;;;;;;;;2105661;28;20044;-43
2023/01/09 03:29:52;;;;;;;24.48;5.97;;;;;;;;;;2105740;28;20051;-43
2023/01/09 03:30:53;;;;;;;19.15;7.18;;;;;;;;;;2105728;28;20048;-43
2023/01/09 03:31:54;;;;;;;13.40;6.37;;;;;;;;;;2105553;28;20056;-43
2023/01/09 03:32:55;;;;;;;14.32;6.20;;;;;;;;;;2105646;28;20071;-43
2023/01/09 03:33:57;;;;;;;16.75;6.68;;;;;;;;;;2105684;28;20048;-43
2023/01/09 03:35:00;;;;;;;16.55;7.38;;;;;;;;;;2105504;28;20051;-43
2023/01/09 03:36:01;;;;;;;12.95;6.32;;;;;;;;;;2105720;28;20051;-43
2023/01/09 03:37:03;;;;;;;20.13;6.90;;;;;;;;;;2105574;28;20480;-43
2023/01/09 03:38:04;;;;;;;16.38;7.13;;;;;;;;;;2105501;28;20296;-43
2023/01/09 03:39:08;;;;;;;14.20;6.60;;;;;;;;;;2105631;28;20076;-43
2023/01/09 03:40:09;;;;;;;11.57;5.82;;;;;;;;;;2105589;28;20044;-43
2023/01/09 03:41:11;;;;;;;20.02;6.53;;;;;;;;;;2105656;28;20048;-43
2023/01/09 03:42:11;;;;;;;17.42;6.70;;;;;;;;;;2105478;28;20047;-43
2023/01/09 03:43:13;;;;;;;15.13;6.07;;;;;;;;;;2105571;28;20052;-43
2023/01/09 03:44:13;;;;;;;13.23;6.63;;;;;;;;;;2105486;28;20052;-43
2023/01/09 03:45:15;;;;;;;15.27;6.57;;;;;;;;;;2105712;28;20075;-43
2023/01/09 03:46:16;;;;;;;13.93;6.45;;;;;;;;;;2105456;28;20044;-43
2023/01/09 03:47:17;;;;;;;16.13;6.32;;;;;;;;;;2105455;28;20484;-43
2023/01/09 03:48:18;;;;;;;14.23;6.35;;;;;;;;;;2105576;28;20257;-43
2023/01/09 03:49:20;;;;;;;16.67;7.23;;;;;;;;;;2105687;28;20524;-43
2023/01/09 03:50:21;;;;;;;18.02;7.45;;;;;;;;;;2105544;28;20359;-43
2023/01/09 03:51:22;;;;;;;18.10;7.27;;;;;;;;;;2105737;28;20596;-43
2023/01/09 03:52:23;;;;;;;17.05;8.10;;;;;;;;;;2105466;28;20048;-43
2023/01/09 03:53:25;;;;;;;15.13;6.67;;;;;;;;;;2105518;28;20488;-43
2023/01/09 03:54:26;;;;;;;14.80;6.80;;;;;;;;;;2105679;28;20044;-43
2023/01/09 03:55:27;;;;;;;14.80;6.70;;;;;;;;;;2105450;28;20055;-43
2023/01/09 03:56:28;;;;;;;17.95;6.93;;;;;;;;;;2105336;28;20382;-43
2023/01/09 03:57:29;;;;;;;19.47;7.80;;;;;;;;;;2105433;28;20047;-43
2023/01/09 03:58:30;;;;;;;15.77;6.50;;;;;;;;;;2105565;28;20508;-43
2023/01/09 03:59:31;;;;;;;17.98;7.30;;;;;;;;;;2106889;28;20173;-43
2023/01/09 04:00:32;;;;;;;13.98;6.10;;;;;;;;;;2106972;28;20101;-43
2023/01/09 04:01:34;;;;;;;18.00;6.32;;;;;;;;;;2106913;28;20506;-43
2023/01/09 04:02:35;;;;;;;14.00;6.55;;;;;;;;;;2106883;28;20044;-43
2023/01/09 04:03:36;;;;;;;18.58;6.93;;;;;;;;;;2107023;28;20051;-43
2023/01/09 04:04:38;;;;;;;16.25;7.13;;;;;;;;;;2106975;28;20036;-43
2023/01/09 04:05:39;;;;;;;;;;;;;;;;;;2107305;28;20044;-43
2023/01/09 04:06:40;;;;;;;13.15;6.00;;;;;;;;;;2106753;28;19966;-43
2023/01/09 04:07:41;;;;;;;14.32;6.63;;;;;;;;;;2111727;28;20039;-43
2023/01/09 04:08:42;;;;;;;13.87;5.77;;;;;;;;;;2115205;28;20328;-43
2023/01/09 04:09:43;;;;;;;14.48;6.05;;;;;;;;;;2115227;28;20044;-43
2023/01/09 04:10:44;;;;;;;18.47;6.90;;;;;;;;;;2115284;28;20044;-43
2023/01/09 04:11:45;;;;;;;15.15;5.82;;;;;;;;;;2115138;28;20054;-43
2023/01/09 04:12:46;;;;;;;15.02;6.45;;;;;;;;;;2115268;28;20442;-43
2023/01/09 04:13:47;;;;;;;16.20;6.63;;;;;;;;;;2115204;28;20352;-43
2023/01/09 04:14:48;;;;;;;16.13;7.37;;;;;;;;;;2115335;28;20131;-43
2023/01/09 04:15:49;;;;;;;16.17;6.57;;;;;;;;;;2115353;28;20048;-43
2023/01/09 04:16:50;;;;;;;15.20;6.13;;;;;;;;;;2115308;28;20134;-43
2023/01/09 04:17:51;;;;;;;19.45;7.38;;;;;;;;;;2115164;28;20124;-43
2023/01/09 04:18:53;;;;;;;17.13;7.50;;;;;;;;;;2115447;28;20115;-43
2023/01/09 04:19:54;;;;;;;17.30;7.22;;;;;;;;;;2115140;28;20492;-53
2023/01/09 04:20:55;;;;;;;17.73;7.05;;;;;;;;;;2115276;28;20495;-54
2023/01/09 04:21:56;;;;;;;15.95;8.27;;;;;;;;;;2115232;28;20446;-53
2023/01/09 04:22:58;;;;;;;15.95;6.55;;;;;;;;;;2107657;28;20097;-54
2023/01/09 04:23:59;;;;;;;19.63;8.38;;;;;;;;;;2106576;28;20052;-54
2023/01/09 04:25:00;;;;;;;15.27;6.70;;;;;;;;;;2106877;28;20095;-54
2023/01/09 04:26:02;;;;;;;15.20;6.25;;;;;;;;;;2106628;28;20052;-52
2023/01/09 04:27:03;;;;;;;15.23;7.10;;;;;;;;;;2106587;28;20124;-54
2023/01/09 04:28:04;;;;;;;14.80;7.15;;;;;;;;;;2106813;28;20063;-54
2023/01/09 04:29:05;;;;;;;15.55;6.93;;;;;;;;;;2106598;28;20051;-54
2023/01/09 04:30:07;;;;;;;14.93;7.60;;;;;;;;;;2106570;28;20512;-51
2023/01/09 04:31:08;;;;;;;11.32;6.72;;;;;;;;;;2106874;28;20044;-53
2023/01/09 04:32:09;;;;;;;17.83;7.53;;;;;;;;;;2106673;28;20052;-54
2023/01/09 04:33:10;;;;;;;16.98;7.18;;;;;;;;;;2106760;28;20076;-53
2023/01/09 04:34:11;;;;;;;15.40;6.68;;;;;;;;;;2106664;28;20555;-52
2023/01/09 04:35:13;;;;;;;14.73;7.00;;;;;;;;;;2106703;28;20118;-53
2023/01/09 04:36:14;;;;;;;16.85;7.65;;;;;;;;;;2106697;28;20044;-54
2023/01/09 04:37:15;;;;;;;18.50;7.97;;;;;;;;;;2106674;28;20052;-52
2023/01/09 04:38:16;;;;;;;18.17;6.97;;;;;;;;;;2106756;28;20083;-54
2023/01/09 04:39:17;;;;;;;20.75;8.88;;;;;;;;;;2106707;28;20055;-54
2023/01/09 04:40:18;;;;;;;20.77;8.07;;;;;;;;;;2106662;28;20510;-54
2023/01/09 04:42:35;;;;;;;16.83;6.90;;;;;;;;;;2105539;28;20500;-54
2023/01/09 04:43:36;;;;;;;16.63;6.47;;;;;;;;;;2106570;28;20093;-54
2023/01/09 04:44:37;;;;;;;15.80;7.37;;;;;;;;;;2106607;28;20094;-55
2023/01/09 04:45:38;;;;;;;15.77;6.88;;;;;;;;;;2106768;28;20040;-54
2023/01/09 04:46:39;;;;;;;14.80;6.68;;;;;;;;;;2106586;28;20397;-52
2023/01/09 04:47:40;;;;;;;14.35;7.43;;;;;;;;;;2106661;28;20040;-52
2023/01/09 04:48:41;;;;;;;16.23;6.60;;;;;;;;;;2106691;28;20194;-52
2023/01/09 04:49:42;;;;;;;17.50;7.00;;;;;;;;;;2106587;28;20381;-54
2023/01/09 04:50:44;;;;;;;18.33;6.93;;;;;;;;;;2106652;28;20047;-53
2023/01/09 04:51:45;;;;;;;14.82;7.03;;;;;;;;;;2106435;28;20476;-52
2023/01/09 04:52:46;;;;;;;21.88;7.18;;;;;;;;;;2106724;28;20127;-53
2023/01/09 04:53:47;;;;;;;15.95;6.70;;;;;;;;;;2106552;28;20048;-54
2023/01/09 04:54:48;;;;;;;17.23;8.30;;;;;;;;;;2106745;28;20048;-53
2023/01/09 04:55:49;;;;;;;18.23;7.13;;;;;;;;;;2106537;28;20056;-52
2023/01/09 04:56:51;;;;;;;15.70;6.88;;;;;;;;;;2106443;28;20079;-52
2023/01/09 04:57:52;;;;;;;16.02;7.50;;;;;;;;;;2106553;28;20094;-53
2023/01/09 04:58:53;;;;;;;14.53;7.07;;;;;;;;;;2106679;28;20052;-54
2023/01/09 04:59:54;;;;;;;16.30;7.28;;;;;;;;;;2106627;28;20530;-54
2023/01/09 05:00:55;;;;;;;15.93;6.63;;;;;;;;;;2106658;28;20052;-54
2023/01/09 05:01:57;;;;;;;17.08;7.55;;;;;;;;;;2106546;28;20055;-52
2023/01/09 05:02:58;;;;;;;16.85;7.25;;;;;;;;;;2106402;28;20139;-53
2023/01/09 05:03:59;;;;;;;18.50;7.68;;;;;;;;;;2111684;28;20043;-54
2023/01/09 05:05:00;;;;;;;22.27;7.57;;;;;;;;;;2114978;28;20046;-53
2023/01/09 05:06:02;;;;;;;17.90;8.20;;;;;;;;;;2115157;28;20044;-54
2023/01/09 05:07:03;;;;;;;14.57;6.95;;;;;;;;;;2114806;28;20055;-54
2023/01/09 05:08:04;;;;;;;18.50;7.30;;;;;;;;;;2115009;28;20105;-54
2023/01/09 05:09:05;;;;;;;15.40;7.75;;;;;;;;;;2114977;28;20478;-53
2023/01/09 05:10:07;;;;;;;16.83;6.80;;;;;;;;;;2114823;28;20055;-54
2023/01/09 05:11:08;;;;;;;14.73;7.05;;;;;;;;;;2114811;28;20400;-52
2023/01/09 05:12:09;;;;;;;20.45;7.28;;;;;;;;;;2114948;28;20047;-54
2023/01/09 05:13:10;;;;;;;27.17;7.13;;;;;;;;;;2114946;28;20086;-52
2023/01/09 05:14:11;;;;;;;18.77;7.75;;;;;;;;;;2114791;28;20044;-54
2023/01/09 05:15:12;;;;;;;16.83;6.77;;;;;;;;;;2114936;28;20496;-54
2023/01/09 05:16:13;;;;;;;17.58;7.28;;;;;;;;;;2114741;28;20306;-54
2023/01/09 05:17:15;;;;;;;16.02;7.53;;;;;;;;;;2114918;28;20054;-54
2023/01/09 05:18:15;;;;;;;15.10;7.10;;;;;;;;;;2114840;28;20044;-53
2023/01/09 05:19:17;;;;;;;17.80;7.60;;;;;;;;;;2115009;28;20094;-51
2023/01/09 05:20:18;;;;;;;18.13;8.00;;;;;;;;;;2114875;28;20048;-54
2023/01/09 05:21:19;;;;;;;16.50;8.37;;;;;;;;;;2114868;28;20048;-53
2023/01/09 05:22:20;;;;;;;15.13;7.50;;;;;;;;;;2112406;28;20052;-52
2023/01/09 05:23:21;;;;;;;18.95;7.60;;;;;;;;;;2106352;28;20079;-52
2023/01/09 05:24:22;;;;;;;14.57;7.18;;;;;;;;;;2106642;28;20048;-53
2023/01/09 05:25:23;;;;;;;15.30;7.88;;;;;;;;;;2106364;28;20046;-53
2023/01/09 05:26:24;;;;;;;19.15;7.57;;;;;;;;;;2106492;28;20051;-52
2023/01/09 05:27:26;;;;;;;17.52;7.07;;;;;;;;;;2106302;28;20117;-54
2023/01/09 05:28:27;;;;;;;16.30;7.22;;;;;;;;;;2106446;28;20051;-53
2023/01/09 05:29:28;;;;;;;19.80;7.00;;;;;;;;;;2106369;28;20481;-54
2023/01/09 05:30:29;;;;;;;15.95;7.20;;;;;;;;;;2106307;28;20040;-52
2023/01/09 05:31:30;;;;;;;19.08;7.28;;;;;;;;;;2106281;28;20064;-51
2023/01/09 05:32:31;;;;;;;17.08;6.88;;;;;;;;;;2106332;28;20473;-54
2023/01/09 05:33:32;;;;;;;15.35;6.93;;;;;;;;;;2106649;28;20044;-43
2023/01/09 05:34:33;;;;;;;16.77;7.30;;;;;;;;;;2106397;28;20055;-43
2023/01/09 05:35:34;;;;;;;17.60;7.40;;;;;;;;;;2106431;28;20055;-43
2023/01/09 05:36:36;;;;;;;18.27;8.52;;;;;;;;;;2106408;28;20051;-43
2023/01/09 05:37:37;;;;;;;15.68;7.80;;;;;;;;;;2106254;28;20040;-43
2023/01/09 05:38:38;;;;;;;16.02;7.63;;;;;;;;;;2106292;28;20040;-43
2023/01/09 05:39:39;;;;;;;15.43;7.10;;;;;;;;;;2106435;28;20047;-43
2023/01/09 05:40:40;;;;;;;13.68;6.13;;;;;;;;;;2106182;28;20044;-43
2023/01/09 05:41:41;;;;;;;16.83;7.37;;;;;;;;;;2106348;28;20075;-43
2023/01/09 05:42:43;;;;;;;21.88;7.75;;;;;;;;;;2106079;28;20048;-43
2023/01/09 05:43:44;;;;;;;18.33;7.55;;;;;;;;;;2106205;28;20546;-43
2023/01/09 05:44:45;;;;;;;19.13;7.28;;;;;;;;;;2106296;28;20079;-43
2023/01/09 05:45:46;;;;;;;20.02;7.10;;;;;;;;;;2106264;28;20044;-43
2023/01/09 05:46:47;;;;;;;15.05;7.10;;;;;;;;;;2106209;28;20082;-43
2023/01/09 05:47:48;;;;;;;16.43;7.30;;;;;;;;;;2106224;28;20131;-43
2023/01/09 05:48:49;;;;;;;20.95;7.80;;;;;;;;;;2106324;28;20059;-43
2023/01/09 05:49:50;;;;;;;16.63;7.22;;;;;;;;;;2106488;28;20404;-43
2023/01/09 05:50:51;;;;;;;21.08;7.90;;;;;;;;;;2106220;28;20105;-43
2023/01/09 05:51:53;;;;;;;18.67;7.40;;;;;;;;;;2106041;28;20088;-43
2023/01/09 05:52:53;;;;;;;17.70;7.60;;;;;;;;;;2106389;28;20044;-43
2023/01/09 05:53:55;;;;;;;18.40;7.65;;;;;;;;;;2106276;28;20052;-43
2023/01/09 05:54:55;;;;;;;15.00;7.55;;;;;;;;;;2106592;28;20071;-43
2023/01/09 05:55:57;;;;;;;18.93;7.53;;;;;;;;;;2106293;28;20058;-43
2023/01/09 05:56:57;;;;;;;17.52;7.05;;;;;;;;;;2106066;28;20040;-43
2023/01/09 05:57:59;;;;;;;15.53;6.97;;;;;;;;;;2106183;28;20088;-43
2023/01/09 05:58:59;;;;;;;20.52;6.85;;;;;;;;;;2106122;28;20545;-43
2023/01/09 06:00:01;;;;;;;18.00;8.00;;;;;;;;;;2109569;28;20039;-43
2023/01/09 06:01:02;;;;;;;17.23;8.27;;;;;;;;;;2114511;28;20047;-43
2023/01/09 06:02:03;;;;;;;21.80;8.25;;;;;;;;;;2114631;28;20551;-43
2023/01/09 06:03:04;;;;;;;15.77;7.90;;;;;;;;;;2114434;28;20408;-43
2023/01/09 06:04:05;;;;;;;18.03;8.40;;;;;;;;;;2114515;28;20044;-43
2023/01/09 06:05:07;;;;;;;16.80;7.25;;;;;;;;;;2114443;28;20073;-43
2023/01/09 06:06:08;;;;;;;17.85;7.28;;;;;;;;;;2114433;28;20396;-43
2023/01/09 06:07:09;;;;;;;17.25;7.78;;;;;;;;;;2114303;28;20412;-43
2023/01/09 06:08:10;;;;;;;16.55;7.57;;;;;;;;;;2114610;28;20051;-43
2023/01/09 06:09:11;;;;;;;19.45;7.72;;;;;;;;;;2114515;28;20504;-43
2023/01/09 06:10:13;;;;;;;19.10;8.07;;;;;;;;;;2114409;28;20436;-43
2023/01/09 06:11:14;;;;;;;19.15;8.05;;;;;;;;;;2114607;28;20051;-43
2023/01/09 06:12:15;;;;;;;20.30;7.07;;;;;;;;;;2114269;28;20054;-43
2023/01/09 06:13:16;;;;;;;17.40;7.40;;;;;;;;;;2114498;28;20048;-43
2023/01/09 06:14:17;;;;;;;17.13;8.10;;;;;;;;;;2114455;28;20120;-43